sensor_id;sensor_type;location;lat;lon;timestamp;temperature;humidity
54082;DHT22;39986;50.770;0.266;2023-10-19T07:06:43;15.90;99.90
54082;DHT22;39986;50.770;0.266;2023-10-19T07:09:10;16.00;99.90
54082;DHT22;39986;50.770;0.266;2023-10-19T07:11:35;16.00;99.90
54082;DHT22;39986;50.770;0.266;2023-10-19T07:14:01;16.00;99.90
54082;DHT22;39986;50.770;0.266;2023-10-19T07:16:26;15.90;99.90
54082;DHT22;39986;50.770;0.266;2023-10-19T07:18:52;16.00;99.90
54082;DHT22;39986;50.770;0.266;2023-10-19T07:21:18;15.90;99.90
54082;DHT22;39986;50.770;0.266;2023-10-19T07:23:44;16.00;99.90
54082;DHT22;39986;50.770;0.266;2023-10-19T07:26:11;16.00;99.90
54082;DHT22;39986;50.770;0.266;2023-10-19T07:28:39;16.00;99.90
54082;DHT22;39986;50.770;0.266;2023-10-19T07:31:05;15.90;99.90
54082;DHT22;39986;50.770;0.266;2023-10-19T07:33:35;16.00;99.90
54082;DHT22;39986;50.770;0.266;2023-10-19T07:36:03;16.00;99.90
54082;DHT22;39986;50.770;0.266;2023-10-19T07:38:33;16.00;99.90
54082;DHT22;39986;50.770;0.266;2023-10-19T07:41:00;16.10;99.90
54082;DHT22;39986;50.770;0.266;2023-10-19T07:43:26;16.00;99.90
54082;DHT22;39986;50.770;0.266;2023-10-19T07:45:52;16.00;99.90
54082;DHT22;39986;50.770;0.266;2023-10-19T07:48:18;16.00;99.90
54082;DHT22;39986;50.770;0.266;2023-10-19T07:50:43;16.10;99.90
54082;DHT22;39986;50.770;0.266;2023-10-19T07:53:09;16.10;99.90
54082;DHT22;39986;50.770;0.266;2023-10-19T07:55:35;16.00;99.90
54082;DHT22;39986;50.770;0.266;2023-10-19T07:58:01;16.10;99.90
54082;DHT22;39986;50.770;0.266;2023-10-19T08:00:28;16.20;99.90
54082;DHT22;39986;50.770;0.266;2023-10-19T08:02:59;16.20;99.90
54082;DHT22;39986;50.770;0.266;2023-10-19T08:05:25;16.20;99.90
54082;DHT22;39986;50.770;0.266;2023-10-19T08:07:51;16.30;99.90
54082;DHT22;39986;50.770;0.266;2023-10-19T08:10:17;16.30;99.90
54082;DHT22;39986;50.770;0.266;2023-10-19T08:12:44;16.40;99.90
54082;DHT22;39986;50.770;0.266;2023-10-19T08:15:13;16.40;99.90
54082;DHT22;39986;50.770;0.266;2023-10-19T08:17:42;16.50;99.90
54082;DHT22;39986;50.770;0.266;2023-10-19T08:20:09;16.50;99.90
54082;DHT22;39986;50.770;0.266;2023-10-19T08:22:36;16.60;99.90
54082;DHT22;39986;50.770;0.266;2023-10-19T08:25:04;16.60;99.90
54082;DHT22;39986;50.770;0.266;2023-10-19T08:27:40;16.60;99.90
54082;DHT22;39986;50.770;0.266;2023-10-19T08:30:06;16.70;99.90
54082;DHT22;39986;50.770;0.266;2023-10-19T08:32:34;16.80;99.90
54082;DHT22;39986;50.770;0.266;2023-10-19T08:35:01;16.90;99.90
54082;DHT22;39986;50.770;0.266;2023-10-19T08:37:27;17.00;99.90
54082;DHT22;39986;50.770;0.266;2023-10-19T08:39:53;17.00;99.90
54082;DHT22;39986;50.770;0.266;2023-10-19T08:42:19;17.20;99.90
54082;DHT22;39986;50.770;0.266;2023-10-19T08:44:45;17.20;99.90
54082;DHT22;39986;50.770;0.266;2023-10-19T08:47:11;17.30;99.90
54082;DHT22;39986;50.770;0.266;2023-10-19T08:49:37;17.40;99.90
54082;DHT22;39986;50.770;0.266;2023-10-19T08:52:03;17.50;99.90
54082;DHT22;39986;50.770;0.266;2023-10-19T08:54:29;17.50;99.90
54082;DHT22;39986;50.770;0.266;2023-10-19T08:56:55;17.50;99.90
54082;DHT22;39986;50.770;0.266;2023-10-19T08:59:21;17.40;99.90
54082;DHT22;39986;50.770;0.266;2023-10-19T09:01:47;17.30;99.90
54082;DHT22;39986;50.770;0.266;2023-10-19T09:04:12;17.30;99.90
54082;DHT22;39986;50.770;0.266;2023-10-19T09:06:41;17.30;99.90
54082;DHT22;39986;50.770;0.266;2023-10-19T09:09:10;17.40;99.90
54082;DHT22;39986;50.770;0.266;2023-10-19T09:11:45;17.40;99.90
54082;DHT22;39986;50.770;0.266;2023-10-19T09:14:12;17.50;99.90
54082;DHT22;39986;50.770;0.266;2023-10-19T09:16:55;17.50;99.90
54082;DHT22;39986;50.770;0.266;2023-10-19T09:19:34;17.60;99.90
54082;DHT22;39986;50.770;0.266;2023-10-19T09:22:01;17.50;99.90
54082;DHT22;39986;50.770;0.266;2023-10-19T09:24:35;17.40;99.90
54082;DHT22;39986;50.770;0.266;2023-10-19T09:27:04;17.40;99.90
54082;DHT22;39986;50.770;0.266;2023-10-19T09:29:29;17.40;99.90
54082;DHT22;39986;50.770;0.266;2023-10-19T09:31:58;17.30;99.90
54082;DHT22;39986;50.770;0.266;2023-10-19T09:34:25;17.50;99.90
54082;DHT22;39986;50.770;0.266;2023-10-19T09:36:57;17.70;99.90
54082;DHT22;39986;50.770;0.266;2023-10-19T09:39:24;18.10;99.90
54082;DHT22;39986;50.770;0.266;2023-10-19T09:41:50;18.60;99.90
54082;DHT22;39986;50.770;0.266;2023-10-19T09:44:18;18.50;99.90
54082;DHT22;39986;50.770;0.266;2023-10-19T09:46:47;18.30;99.90
54082;DHT22;39986;50.770;0.266;2023-10-19T09:49:13;18.10;99.90
54082;DHT22;39986;50.770;0.266;2023-10-19T09:51:39;17.80;99.90
54082;DHT22;39986;50.770;0.266;2023-10-19T09:54:14;17.80;99.90
54082;DHT22;39986;50.770;0.266;2023-10-19T09:56:42;17.80;99.90
54082;DHT22;39986;50.770;0.266;2023-10-19T09:59:22;17.70;99.90
54082;DHT22;39986;50.770;0.266;2023-10-19T10:04:33;17.80;99.90
54082;DHT22;39986;50.770;0.266;2023-10-19T10:07:00;17.70;99.90
54082;DHT22;39986;50.770;0.266;2023-10-19T10:09:26;17.60;99.90
54082;DHT22;39986;50.770;0.266;2023-10-19T10:11:52;17.50;99.90
54082;DHT22;39986;50.770;0.266;2023-10-19T10:14:25;17.50;99.90
54082;DHT22;39986;50.770;0.266;2023-10-19T10:17:02;17.30;99.90
54082;DHT22;39986;50.770;0.266;2023-10-19T10:19:27;17.20;99.90
54082;DHT22;39986;50.770;0.266;2023-10-19T10:22:03;17.20;99.90
54082;DHT22;39986;50.770;0.266;2023-10-19T10:24:31;17.20;99.90
54082;DHT22;39986;50.770;0.266;2023-10-19T10:26:57;17.10;99.90
54082;DHT22;39986;50.770;0.266;2023-10-19T10:29:23;17.30;99.90
54082;DHT22;39986;50.770;0.266;2023-10-19T10:31:53;17.40;99.90
54082;DHT22;39986;50.770;0.266;2023-10-19T10:37:03;17.80;99.90
54082;DHT22;39986;50.770;0.266;2023-10-19T10:39:29;18.10;99.90
54082;DHT22;39986;50.770;0.266;2023-10-19T10:41:59;18.50;99.90
54082;DHT22;39986;50.770;0.266;2023-10-19T10:47:21;19.00;99.90
54082;DHT22;39986;50.770;0.266;2023-10-19T10:52:25;19.40;99.90
54082;DHT22;39986;50.770;0.266;2023-10-19T10:54:51;19.70;99.90
54082;DHT22;39986;50.770;0.266;2023-10-19T10:57:18;19.60;99.90
54082;DHT22;39986;50.770;0.266;2023-10-19T10:59:44;19.40;99.90
54082;DHT22;39986;50.770;0.266;2023-10-19T11:02:16;19.10;99.90
54082;DHT22;39986;50.770;0.266;2023-10-19T11:04:45;19.10;99.90
54082;DHT22;39986;50.770;0.266;2023-10-19T11:07:17;19.10;99.90
54082;DHT22;39986;50.770;0.266;2023-10-19T11:09:44;19.30;99.90
54082;DHT22;39986;50.770;0.266;2023-10-19T11:12:11;19.20;99.90
54082;DHT22;39986;50.770;0.266;2023-10-19T11:14:36;19.20;99.90
54082;DHT22;39986;50.770;0.266;2023-10-19T11:17:11;18.90;99.90
54082;DHT22;39986;50.770;0.266;2023-10-19T11:19:39;18.60;99.90
54082;DHT22;39986;50.770;0.266;2023-10-19T11:22:09;18.30;99.90
54082;DHT22;39986;50.770;0.266;2023-10-19T11:24:34;18.20;99.90
54082;DHT22;39986;50.770;0.266;2023-10-19T11:27:05;18.30;99.90
54082;DHT22;39986;50.770;0.266;2023-10-19T11:29:32;18.40;99.90
54082;DHT22;39986;50.770;0.266;2023-10-19T11:31:59;18.50;99.90
54082;DHT22;39986;50.770;0.266;2023-10-19T11:34:28;18.60;99.90
54082;DHT22;39986;50.770;0.266;2023-10-19T11:36:58;18.50;99.90
54082;DHT22;39986;50.770;0.266;2023-10-19T11:39:27;18.30;99.90
54082;DHT22;39986;50.770;0.266;2023-10-19T11:41:54;18.20;99.90
54082;DHT22;39986;50.770;0.266;2023-10-19T11:44:19;18.10;99.90
54082;DHT22;39986;50.770;0.266;2023-10-19T11:46:45;18.10;99.90
54082;DHT22;39986;50.770;0.266;2023-10-19T11:49:11;18.00;99.90
54082;DHT22;39986;50.770;0.266;2023-10-19T11:51:36;17.90;99.90
54082;DHT22;39986;50.770;0.266;2023-10-19T11:54:04;17.70;99.90
54082;DHT22;39986;50.770;0.266;2023-10-19T11:56:31;17.60;99.90
54082;DHT22;39986;50.770;0.266;2023-10-19T11:58:58;17.40;99.90
54082;DHT22;39986;50.770;0.266;2023-10-19T12:01:24;17.40;99.90
54082;DHT22;39986;50.770;0.266;2023-10-19T12:03:52;17.30;99.90
54082;DHT22;39986;50.770;0.266;2023-10-19T12:06:17;17.40;99.90
54082;DHT22;39986;50.770;0.266;2023-10-19T12:08:49;17.50;99.90
54082;DHT22;39986;50.770;0.266;2023-10-19T12:11:14;17.90;99.90
54082;DHT22;39986;50.770;0.266;2023-10-19T12:13:47;18.40;99.90
54082;DHT22;39986;50.770;0.266;2023-10-19T12:16:13;19.40;99.90
54082;DHT22;39986;50.770;0.266;2023-10-19T12:18:41;21.30;99.90
54082;DHT22;39986;50.770;0.266;2023-10-19T12:21:07;23.30;99.90
54082;DHT22;39986;50.770;0.266;2023-10-19T12:23:38;24.70;99.90
54082;DHT22;39986;50.770;0.266;2023-10-19T12:26:04;26.40;99.90
54082;DHT22;39986;50.770;0.266;2023-10-19T12:28:39;28.20;99.90
54082;DHT22;39986;50.770;0.266;2023-10-19T12:31:06;27.00;99.90
54082;DHT22;39986;50.770;0.266;2023-10-19T12:33:34;26.40;99.90
54082;DHT22;39986;50.770;0.266;2023-10-19T12:36:00;27.90;99.90
54082;DHT22;39986;50.770;0.266;2023-10-19T12:38:25;29.60;99.90
54082;DHT22;39986;50.770;0.266;2023-10-19T12:40:52;30.30;99.90
54082;DHT22;39986;50.770;0.266;2023-10-19T12:43:19;29.80;99.90
54082;DHT22;39986;50.770;0.266;2023-10-19T12:45:47;30.80;99.90
54082;DHT22;39986;50.770;0.266;2023-10-19T12:48:19;31.40;99.90
54082;DHT22;39986;50.770;0.266;2023-10-19T12:50:46;31.70;99.90
54082;DHT22;39986;50.770;0.266;2023-10-19T12:53:12;32.20;99.90
54082;DHT22;39986;50.770;0.266;2023-10-19T12:55:39;32.00;99.90
54082;DHT22;39986;50.770;0.266;2023-10-19T12:58:05;31.30;99.90
54082;DHT22;39986;50.770;0.266;2023-10-19T13:00:35;31.00;99.90
54082;DHT22;39986;50.770;0.266;2023-10-19T13:03:09;29.20;99.90
54082;DHT22;39986;50.770;0.266;2023-10-19T13:05:39;28.10;99.90
54082;DHT22;39986;50.770;0.266;2023-10-19T13:08:09;29.30;99.90
54082;DHT22;39986;50.770;0.266;2023-10-19T13:10:35;29.80;99.90
54082;DHT22;39986;50.770;0.266;2023-10-19T13:13:03;29.50;99.90
54082;DHT22;39986;50.770;0.266;2023-10-19T13:15:30;29.50;99.90
54082;DHT22;39986;50.770;0.266;2023-10-19T13:17:56;31.00;99.90
54082;DHT22;39986;50.770;0.266;2023-10-19T13:20:24;31.50;99.90
54082;DHT22;39986;50.770;0.266;2023-10-19T13:22:51;31.60;99.90
54082;DHT22;39986;50.770;0.266;2023-10-19T13:25:17;31.40;99.90
54082;DHT22;39986;50.770;0.266;2023-10-19T13:27:43;31.00;99.90
54082;DHT22;39986;50.770;0.266;2023-10-19T13:30:09;29.90;99.90
54082;DHT22;39986;50.770;0.266;2023-10-19T13:32:40;28.70;99.90
54082;DHT22;39986;50.770;0.266;2023-10-19T13:35:06;27.10;99.90
54082;DHT22;39986;50.770;0.266;2023-10-19T13:37:32;26.10;99.90
54082;DHT22;39986;50.770;0.266;2023-10-19T13:39:58;25.90;99.90
54082;DHT22;39986;50.770;0.266;2023-10-19T13:42:24;25.70;99.90
54082;DHT22;39986;50.770;0.266;2023-10-19T13:44:50;25.30;99.90
54082;DHT22;39986;50.770;0.266;2023-10-19T13:47:15;25.00;99.90
54082;DHT22;39986;50.770;0.266;2023-10-19T13:49:41;25.30;99.90
54082;DHT22;39986;50.770;0.266;2023-10-19T13:52:07;25.80;99.90
54082;DHT22;39986;50.770;0.266;2023-10-19T13:54:37;26.50;99.90
54082;DHT22;39986;50.770;0.266;2023-10-19T13:57:03;26.30;99.90
54082;DHT22;39986;50.770;0.266;2023-10-19T13:59:28;26.80;99.90
54082;DHT22;39986;50.770;0.266;2023-10-19T14:01:54;28.30;99.90
54082;DHT22;39986;50.770;0.266;2023-10-19T14:04:20;29.50;99.90
54082;DHT22;39986;50.770;0.266;2023-10-19T14:06:46;28.30;99.90
54082;DHT22;39986;50.770;0.266;2023-10-19T14:09:14;27.00;99.90
54082;DHT22;39986;50.770;0.266;2023-10-19T14:11:40;25.70;99.90
54082;DHT22;39986;50.770;0.266;2023-10-19T14:14:06;25.00;99.90
54082;DHT22;39986;50.770;0.266;2023-10-19T14:16:32;24.40;99.90
54082;DHT22;39986;50.770;0.266;2023-10-19T14:18:57;24.50;99.90
54082;DHT22;39986;50.770;0.266;2023-10-19T14:21:23;24.30;99.90
54082;DHT22;39986;50.770;0.266;2023-10-19T14:23:52;23.70;99.90
54082;DHT22;39986;50.770;0.266;2023-10-19T14:26:19;23.40;99.90
54082;DHT22;39986;50.770;0.266;2023-10-19T14:28:45;23.10;99.90
54082;DHT22;39986;50.770;0.266;2023-10-19T14:31:10;22.90;99.90
54082;DHT22;39986;50.770;0.266;2023-10-19T14:33:39;22.60;99.90
54082;DHT22;39986;50.770;0.266;2023-10-19T14:36:04;22.50;99.90
54082;DHT22;39986;50.770;0.266;2023-10-19T14:38:30;22.10;99.90
54082;DHT22;39986;50.770;0.266;2023-10-19T14:40:56;22.00;99.90
54082;DHT22;39986;50.770;0.266;2023-10-19T14:43:23;21.90;99.90
54082;DHT22;39986;50.770;0.266;2023-10-19T14:45:48;21.80;99.90
54082;DHT22;39986;50.770;0.266;2023-10-19T14:48:14;21.70;99.90
54082;DHT22;39986;50.770;0.266;2023-10-19T14:50:40;21.50;99.90
54082;DHT22;39986;50.770;0.266;2023-10-19T14:53:07;21.40;99.90
54082;DHT22;39986;50.770;0.266;2023-10-19T14:55:32;21.30;99.90
54082;DHT22;39986;50.770;0.266;2023-10-19T14:57:58;21.20;99.90
54082;DHT22;39986;50.770;0.266;2023-10-19T15:00:25;21.00;99.90
54082;DHT22;39986;50.770;0.266;2023-10-19T15:02:55;21.00;99.90
54082;DHT22;39986;50.770;0.266;2023-10-19T15:05:21;20.90;99.90
54082;DHT22;39986;50.770;0.266;2023-10-19T15:07:47;20.70;99.90
54082;DHT22;39986;50.770;0.266;2023-10-19T15:10:23;20.60;99.90
54082;DHT22;39986;50.770;0.266;2023-10-19T15:12:50;20.40;99.90
54082;DHT22;39986;50.770;0.266;2023-10-19T15:15:15;20.10;99.90
54082;DHT22;39986;50.770;0.266;2023-10-19T15:17:42;20.00;99.90
54082;DHT22;39986;50.770;0.266;2023-10-19T15:20:09;19.90;99.90
54082;DHT22;39986;50.770;0.266;2023-10-19T15:22:35;19.90;99.90
54082;DHT22;39986;50.770;0.266;2023-10-19T15:25:01;19.80;99.90
54082;DHT22;39986;50.770;0.266;2023-10-19T15:27:27;19.80;99.90
54082;DHT22;39986;50.770;0.266;2023-10-19T15:29:54;19.80;99.90
54082;DHT22;39986;50.770;0.266;2023-10-19T15:32:20;19.80;99.90
54082;DHT22;39986;50.770;0.266;2023-10-19T15:34:46;19.80;99.90
54082;DHT22;39986;50.770;0.266;2023-10-19T15:37:14;19.80;99.90
54082;DHT22;39986;50.770;0.266;2023-10-19T15:39:39;19.70;99.90
54082;DHT22;39986;50.770;0.266;2023-10-19T15:42:05;19.60;99.90
54082;DHT22;39986;50.770;0.266;2023-10-19T15:44:33;19.60;99.90
54082;DHT22;39986;50.770;0.266;2023-10-19T15:46:59;19.60;99.90
54082;DHT22;39986;50.770;0.266;2023-10-19T15:49:25;19.60;99.90
54082;DHT22;39986;50.770;0.266;2023-10-19T15:51:51;19.50;99.90
54082;DHT22;39986;50.770;0.266;2023-10-19T15:54:16;19.40;99.90
54082;DHT22;39986;50.770;0.266;2023-10-19T15:56:42;19.40;99.90
54082;DHT22;39986;50.770;0.266;2023-10-19T15:59:07;19.30;99.90
54082;DHT22;39986;50.770;0.266;2023-10-19T16:01:33;19.20;99.90
54082;DHT22;39986;50.770;0.266;2023-10-19T16:03:59;19.00;99.90
54082;DHT22;39986;50.770;0.266;2023-10-19T16:06:26;19.00;99.90
54082;DHT22;39986;50.770;0.266;2023-10-19T16:08:54;18.90;99.90
54082;DHT22;39986;50.770;0.266;2023-10-19T16:11:19;18.90;99.90
54082;DHT22;39986;50.770;0.266;2023-10-19T16:13:45;18.80;99.90
54082;DHT22;39986;50.770;0.266;2023-10-19T16:16:10;18.80;99.90
54082;DHT22;39986;50.770;0.266;2023-10-19T16:18:37;18.80;99.90
54082;DHT22;39986;50.770;0.266;2023-10-19T16:21:06;18.80;99.90
54082;DHT22;39986;50.770;0.266;2023-10-19T16:23:32;18.70;99.90
54082;DHT22;39986;50.770;0.266;2023-10-19T16:26:01;18.70;99.90
54082;DHT22;39986;50.770;0.266;2023-10-19T16:28:27;18.60;99.90
54082;DHT22;39986;50.770;0.266;2023-10-19T16:30:52;18.50;99.90
54082;DHT22;39986;50.770;0.266;2023-10-19T16:33:18;18.40;99.90
54082;DHT22;39986;50.770;0.266;2023-10-19T16:35:44;18.40;99.90
54082;DHT22;39986;50.770;0.266;2023-10-19T16:38:09;18.30;99.90
54082;DHT22;39986;50.770;0.266;2023-10-19T16:40:38;18.20;99.90
54082;DHT22;39986;50.770;0.266;2023-10-19T16:43:10;18.10;99.90
54082;DHT22;39986;50.770;0.266;2023-10-19T16:45:35;18.00;99.90
54082;DHT22;39986;50.770;0.266;2023-10-19T16:48:05;18.30;99.90
54082;DHT22;39986;50.770;0.266;2023-10-19T16:50:31;17.70;99.90
54082;DHT22;39986;50.770;0.266;2023-10-19T16:52:57;17.20;99.90
54082;DHT22;39986;50.770;0.266;2023-10-19T16:55:25;16.90;99.90
54082;DHT22;39986;50.770;0.266;2023-10-19T16:57:52;16.70;99.90
54082;DHT22;39986;50.770;0.266;2023-10-19T17:00:21;16.60;99.90
54082;DHT22;39986;50.770;0.266;2023-10-19T17:02:46;16.50;99.90
54082;DHT22;39986;50.770;0.266;2023-10-19T17:05:12;16.40;99.90
54082;DHT22;39986;50.770;0.266;2023-10-19T17:07:37;16.30;99.90
54082;DHT22;39986;50.770;0.266;2023-10-19T17:10:03;16.20;99.90
54082;DHT22;39986;50.770;0.266;2023-10-19T17:12:29;16.20;99.90
54082;DHT22;39986;50.770;0.266;2023-10-19T17:14:58;16.10;99.90
54082;DHT22;39986;50.770;0.266;2023-10-19T17:17:25;16.10;99.90
54082;DHT22;39986;50.770;0.266;2023-10-19T17:19:50;16.00;99.90
54082;DHT22;39986;50.770;0.266;2023-10-19T17:22:16;15.90;99.90
54082;DHT22;39986;50.770;0.266;2023-10-19T17:24:41;15.80;99.90
54082;DHT22;39986;50.770;0.266;2023-10-19T17:27:07;15.80;99.90
54082;DHT22;39986;50.770;0.266;2023-10-19T17:29:33;15.70;99.90
54082;DHT22;39986;50.770;0.266;2023-10-19T17:31:58;15.60;99.90
54082;DHT22;39986;50.770;0.266;2023-10-19T17:34:25;15.70;99.90
54082;DHT22;39986;50.770;0.266;2023-10-19T17:36:50;15.60;99.90
54082;DHT22;39986;50.770;0.266;2023-10-19T17:39:16;15.60;99.90
54082;DHT22;39986;50.770;0.266;2023-10-19T17:41:42;15.60;99.90
54082;DHT22;39986;50.770;0.266;2023-10-19T17:44:11;15.60;99.90
54082;DHT22;39986;50.770;0.266;2023-10-19T17:46:37;15.40;99.90
54082;DHT22;39986;50.770;0.266;2023-10-19T17:49:02;15.50;99.90
54082;DHT22;39986;50.770;0.266;2023-10-19T17:51:28;15.40;99.90
54082;DHT22;39986;50.770;0.266;2023-10-19T17:53:54;15.50;99.90
54082;DHT22;39986;50.770;0.266;2023-10-19T17:56:19;15.40;99.90
54082;DHT22;39986;50.770;0.266;2023-10-19T17:58:45;15.50;99.90
54082;DHT22;39986;50.770;0.266;2023-10-19T18:01:10;15.60;99.90
54082;DHT22;39986;50.770;0.266;2023-10-19T18:03:38;15.60;99.90
54082;DHT22;39986;50.770;0.266;2023-10-19T18:06:06;15.60;99.90
54082;DHT22;39986;50.770;0.266;2023-10-19T18:08:31;15.60;99.90
54082;DHT22;39986;50.770;0.266;2023-10-19T18:10:57;15.70;99.90
54082;DHT22;39986;50.770;0.266;2023-10-19T18:13:24;15.60;99.90
54082;DHT22;39986;50.770;0.266;2023-10-19T18:15:50;15.60;99.90
54082;DHT22;39986;50.770;0.266;2023-10-19T18:18:17;15.60;99.90
54082;DHT22;39986;50.770;0.266;2023-10-19T18:20:43;15.60;99.90
54082;DHT22;39986;50.770;0.266;2023-10-19T18:23:09;15.80;99.90
54082;DHT22;39986;50.770;0.266;2023-10-19T18:25:35;15.70;99.90
54082;DHT22;39986;50.770;0.266;2023-10-19T18:28:03;15.80;99.90
54082;DHT22;39986;50.770;0.266;2023-10-19T18:30:28;15.70;99.90
54082;DHT22;39986;50.770;0.266;2023-10-19T18:32:54;15.70;99.90
54082;DHT22;39986;50.770;0.266;2023-10-19T18:35:20;15.70;99.90
54082;DHT22;39986;50.770;0.266;2023-10-19T18:37:45;15.70;99.90
54082;DHT22;39986;50.770;0.266;2023-10-19T18:40:14;15.80;99.90
54082;DHT22;39986;50.770;0.266;2023-10-19T18:42:40;15.80;99.90
54082;DHT22;39986;50.770;0.266;2023-10-19T18:45:07;15.90;99.90
54082;DHT22;39986;50.770;0.266;2023-10-19T18:47:34;15.90;99.90
54082;DHT22;39986;50.770;0.266;2023-10-19T18:50:00;15.90;99.90
54082;DHT22;39986;50.770;0.266;2023-10-19T18:52:31;16.00;99.90
54082;DHT22;39986;50.770;0.266;2023-10-19T18:54:59;16.00;99.90
54082;DHT22;39986;50.770;0.266;2023-10-19T18:57:25;16.00;99.90
54082;DHT22;39986;50.770;0.266;2023-10-19T18:59:51;16.00;99.90
54082;DHT22;39986;50.770;0.266;2023-10-19T19:02:16;16.00;99.90
54082;DHT22;39986;50.770;0.266;2023-10-19T19:04:42;16.00;99.90
54082;DHT22;39986;50.770;0.266;2023-10-19T19:07:08;16.00;99.90
54082;DHT22;39986;50.770;0.266;2023-10-19T19:09:34;16.00;99.90
54082;DHT22;39986;50.770;0.266;2023-10-19T19:12:00;16.00;99.90
54082;DHT22;39986;50.770;0.266;2023-10-19T19:14:25;16.00;99.90
54082;DHT22;39986;50.770;0.266;2023-10-19T19:16:51;16.00;99.90
54082;DHT22;39986;50.770;0.266;2023-10-19T19:19:16;16.00;99.90
54082;DHT22;39986;50.770;0.266;2023-10-19T19:21:43;16.10;99.90
54082;DHT22;39986;50.770;0.266;2023-10-19T19:24:09;16.00;99.90
54082;DHT22;39986;50.770;0.266;2023-10-19T19:26:34;16.10;99.90
54082;DHT22;39986;50.770;0.266;2023-10-19T19:29:00;16.00;99.90
54082;DHT22;39986;50.770;0.266;2023-10-19T19:31:25;16.00;99.90
54082;DHT22;39986;50.770;0.266;2023-10-19T19:33:51;16.10;99.90
54082;DHT22;39986;50.770;0.266;2023-10-19T19:36:18;16.00;99.90
54082;DHT22;39986;50.770;0.266;2023-10-19T19:38:44;16.00;99.90
54082;DHT22;39986;50.770;0.266;2023-10-19T19:41:10;15.90;99.90
54082;DHT22;39986;50.770;0.266;2023-10-19T19:43:36;16.00;99.90
54082;DHT22;39986;50.770;0.266;2023-10-19T19:46:03;16.00;99.90
54082;DHT22;39986;50.770;0.266;2023-10-19T19:48:29;16.10;99.90
54082;DHT22;39986;50.770;0.266;2023-10-19T19:50:54;16.10;99.90
54082;DHT22;39986;50.770;0.266;2023-10-19T19:53:21;16.20;99.90
54082;DHT22;39986;50.770;0.266;2023-10-19T19:55:46;16.10;99.90
54082;DHT22;39986;50.770;0.266;2023-10-19T19:58:14;16.10;99.90
54082;DHT22;39986;50.770;0.266;2023-10-19T20:00:40;16.10;99.90
54082;DHT22;39986;50.770;0.266;2023-10-19T20:03:07;16.10;99.90
54082;DHT22;39986;50.770;0.266;2023-10-19T20:05:34;16.20;99.90
54082;DHT22;39986;50.770;0.266;2023-10-19T20:08:00;16.20;99.90
54082;DHT22;39986;50.770;0.266;2023-10-19T20:10:36;16.20;99.90
54082;DHT22;39986;50.770;0.266;2023-10-19T20:13:05;16.20;99.90
54082;DHT22;39986;50.770;0.266;2023-10-19T20:15:31;16.20;99.90
54082;DHT22;39986;50.770;0.266;2023-10-19T20:17:57;16.20;99.90
54082;DHT22;39986;50.770;0.266;2023-10-19T20:20:23;16.20;99.90
54082;DHT22;39986;50.770;0.266;2023-10-19T20:22:48;16.20;99.90
54082;DHT22;39986;50.770;0.266;2023-10-19T20:25:14;16.10;99.90
54082;DHT22;39986;50.770;0.266;2023-10-19T20:27:40;16.00;99.90
54082;DHT22;39986;50.770;0.266;2023-10-19T20:30:06;16.10;99.90
54082;DHT22;39986;50.770;0.266;2023-10-19T20:32:32;16.00;99.90
54082;DHT22;39986;50.770;0.266;2023-10-19T20:34:58;16.00;99.90
54082;DHT22;39986;50.770;0.266;2023-10-19T20:37:24;16.00;99.90
54082;DHT22;39986;50.770;0.266;2023-10-19T20:39:50;16.00;99.90
54082;DHT22;39986;50.770;0.266;2023-10-19T20:42:15;16.00;99.90
54082;DHT22;39986;50.770;0.266;2023-10-19T20:44:41;15.90;99.90
54082;DHT22;39986;50.770;0.266;2023-10-19T20:47:07;16.00;99.90
54082;DHT22;39986;50.770;0.266;2023-10-19T20:49:37;16.00;99.90
54082;DHT22;39986;50.770;0.266;2023-10-19T20:52:05;15.90;99.90
54082;DHT22;39986;50.770;0.266;2023-10-19T20:54:31;15.90;99.90
54082;DHT22;39986;50.770;0.266;2023-10-19T20:56:56;15.90;99.90
54082;DHT22;39986;50.770;0.266;2023-10-19T20:59:22;15.80;99.90
54082;DHT22;39986;50.770;0.266;2023-10-19T21:01:48;15.80;99.90
54082;DHT22;39986;50.770;0.266;2023-10-19T21:04:14;15.80;99.90
54082;DHT22;39986;50.770;0.266;2023-10-19T21:06:40;15.80;99.90
54082;DHT22;39986;50.770;0.266;2023-10-19T21:09:05;15.80;99.90
54082;DHT22;39986;50.770;0.266;2023-10-19T21:11:31;15.80;99.90
54082;DHT22;39986;50.770;0.266;2023-10-19T21:13:57;15.80;99.90
54082;DHT22;39986;50.770;0.266;2023-10-19T21:16:23;15.80;99.90
54082;DHT22;39986;50.770;0.266;2023-10-19T21:18:49;15.90;99.90
54082;DHT22;39986;50.770;0.266;2023-10-19T21:21:15;15.80;99.90
54082;DHT22;39986;50.770;0.266;2023-10-19T21:23:41;15.90;99.90
54082;DHT22;39986;50.770;0.266;2023-10-19T21:26:07;15.80;99.90
54082;DHT22;39986;50.770;0.266;2023-10-19T21:28:34;15.90;99.90
54082;DHT22;39986;50.770;0.266;2023-10-19T21:30:59;15.90;99.90
54082;DHT22;39986;50.770;0.266;2023-10-19T21:33:26;15.90;99.90
54082;DHT22;39986;50.770;0.266;2023-10-19T21:35:52;15.80;99.90
54082;DHT22;39986;50.770;0.266;2023-10-19T21:38:18;15.90;99.90
54082;DHT22;39986;50.770;0.266;2023-10-19T21:40:43;15.90;99.90
54082;DHT22;39986;50.770;0.266;2023-10-19T21:43:12;15.90;99.90
54082;DHT22;39986;50.770;0.266;2023-10-19T21:45:38;15.80;99.90
54082;DHT22;39986;50.770;0.266;2023-10-19T21:48:06;15.80;99.90
54082;DHT22;39986;50.770;0.266;2023-10-19T21:50:32;15.80;99.90
54082;DHT22;39986;50.770;0.266;2023-10-19T21:53:02;15.70;99.90
54082;DHT22;39986;50.770;0.266;2023-10-19T21:55:29;15.70;99.90
54082;DHT22;39986;50.770;0.266;2023-10-19T21:57:55;15.70;99.90
54082;DHT22;39986;50.770;0.266;2023-10-19T22:00:21;15.80;99.90
54082;DHT22;39986;50.770;0.266;2023-10-19T22:02:57;15.70;99.90
54082;DHT22;39986;50.770;0.266;2023-10-19T22:05:23;15.70;99.90
54082;DHT22;39986;50.770;0.266;2023-10-19T22:07:49;15.70;99.90
54082;DHT22;39986;50.770;0.266;2023-10-19T22:10:14;15.80;99.90
54082;DHT22;39986;50.770;0.266;2023-10-19T22:12:40;15.80;99.90
54082;DHT22;39986;50.770;0.266;2023-10-19T22:15:05;15.80;99.90
54082;DHT22;39986;50.770;0.266;2023-10-19T22:17:31;15.80;99.90
54082;DHT22;39986;50.770;0.266;2023-10-19T22:19:57;15.90;99.90
54082;DHT22;39986;50.770;0.266;2023-10-19T22:22:22;15.90;99.90
54082;DHT22;39986;50.770;0.266;2023-10-19T22:24:48;16.00;99.90
54082;DHT22;39986;50.770;0.266;2023-10-19T22:27:13;16.00;99.90
54082;DHT22;39986;50.770;0.266;2023-10-19T22:29:40;16.00;99.90
54082;DHT22;39986;50.770;0.266;2023-10-19T22:32:05;16.00;99.90
54082;DHT22;39986;50.770;0.266;2023-10-19T22:34:32;16.10;99.90
54082;DHT22;39986;50.770;0.266;2023-10-19T22:36:58;16.00;99.90
54082;DHT22;39986;50.770;0.266;2023-10-19T22:39:23;16.20;99.90
54082;DHT22;39986;50.770;0.266;2023-10-19T22:41:49;16.20;99.90
54082;DHT22;39986;50.770;0.266;2023-10-19T22:44:16;16.20;99.90